Time;durP1;ratioP1;P1;durP2;ratioP2;P2;SDS_P1;SDS_P2;PMS_P1;PMS_P2;Temp;Humidity;BMP_temperature;BMP_pressure;BME280_temperature;BME280_humidity;BME280_pressure;Samples;Min_cycle;Max_cycle;Signal;HPM_P1;HPM_P2
2024/01/31 00:00:07;;;;;;;10.77;3.67;;;;;;;;;;4956652;29;20023;-95
2024/01/31 00:02:32;;;;;;;11.20;3.63;;;;;;;;;;4939384;29;20059;-94
2024/01/31 00:05:07;;;;;;;18.93;3.53;;;;;;;;;;4938449;29;20039;-95
2024/01/31 00:07:32;;;;;;;20.07;3.90;;;;;;;;;;4966867;28;20286;-93
2024/01/31 00:09:57;;;;;;;14.57;3.43;;;;;;;;;;4933853;29;20507;-95
2024/01/31 00:12:22;;;;;;;12.13;3.67;;;;;;;;;;4957150;29;20027;-94
2024/01/31 00:14:47;;;;;;;16.20;3.80;;;;;;;;;;4970536;28;20047;-94
2024/01/31 00:17:13;;;;;;;17.03;3.83;;;;;;;;;;4961866;28;20283;-94
2024/01/31 00:19:38;;;;;;;14.17;3.67;;;;;;;;;;4939894;29;20019;-94
2024/01/31 00:22:03;;;;;;;20.73;3.70;;;;;;;;;;4938574;29;20376;-93
2024/01/31 00:24:29;;;;;;;14.70;3.60;;;;;;;;;;4953981;29;20525;-96
2024/01/31 00:26:54;;;;;;;20.27;3.40;;;;;;;;;;4944420;29;20023;-93
2024/01/31 00:29:19;;;;;;;12.07;3.30;;;;;;;;;;4951701;29;20035;-94
2024/01/31 00:31:44;;;;;;;17.13;3.70;;;;;;;;;;4960757;28;20019;-94
2024/01/31 00:34:10;;;;;;;11.88;3.80;;;;;;;;;;4955866;29;20027;-93
2024/01/31 00:36:35;;;;;;;11.53;3.47;;;;;;;;;;4956616;29;20086;-94
2024/01/31 00:39:00;;;;;;;18.73;3.70;;;;;;;;;;4938854;29;20031;-94
2024/01/31 00:41:26;;;;;;;10.20;3.23;;;;;;;;;;4955074;29;20102;-95
2024/01/31 00:43:51;;;;;;;15.83;3.50;;;;;;;;;;4938884;29;20074;-95
2024/01/31 00:46:16;;;;;;;7.47;3.00;;;;;;;;;;4956054;29;20051;-94
2024/01/31 00:48:43;;;;;;;8.90;3.30;;;;;;;;;;4954713;29;20066;-95
2024/01/31 00:51:11;;;;;;;8.20;3.07;;;;;;;;;;4938563;29;20095;-94
2024/01/31 00:53:37;;;;;;;12.10;3.50;;;;;;;;;;4954730;29;20589;-93
2024/01/31 00:56:02;;;;;;;12.90;3.58;;;;;;;;;;4938711;29;20019;-95
2024/01/31 00:58:27;;;;;;;9.50;3.00;;;;;;;;;;4938427;29;20031;-93
2024/01/31 01:00:52;;;;;;;16.63;3.23;;;;;;;;;;4938297;29;20085;-94
2024/01/31 01:03:18;;;;;;;11.97;3.60;;;;;;;;;;4956113;29;20086;-94
2024/01/31 01:05:46;;;;;;;9.40;3.40;;;;;;;;;;4939012;29;20023;-94
2024/01/31 01:08:11;;;;;;;14.23;3.70;;;;;;;;;;4938118;29;20095;-93
2024/01/31 01:10:36;;;;;;;13.73;3.67;;;;;;;;;;4922524;29;20043;-94
2024/01/31 01:13:02;;;;;;;22.13;4.40;;;;;;;;;;4955333;29;20050;-94
2024/01/31 01:15:27;;;;;;;12.53;4.10;;;;;;;;;;4955457;28;20023;-95
2024/01/31 01:17:52;;;;;;;14.40;4.40;;;;;;;;;;4955568;29;20393;-94
2024/01/31 01:20:17;;;;;;;17.83;5.57;;;;;;;;;;4937110;29;20027;-94
2024/01/31 01:22:43;;;;;;;12.20;4.70;;;;;;;;;;4937214;29;20072;-95
2024/01/31 01:25:09;;;;;;;11.52;4.28;;;;;;;;;;4923958;29;20475;-94
2024/01/31 01:27:35;;;;;;;16.07;4.77;;;;;;;;;;4924394;29;20026;-94
2024/01/31 01:30:00;;;;;;;15.07;4.90;;;;;;;;;;4932452;29;20343;-94
2024/01/31 01:32:25;;;;;;;16.87;5.30;;;;;;;;;;4962692;29;20035;-94
2024/01/31 01:34:50;;;;;;;18.33;4.83;;;;;;;;;;4960526;29;20042;-95
2024/01/31 01:37:15;;;;;;;15.33;4.70;;;;;;;;;;4961271;29;20019;-94
2024/01/31 01:39:43;;;;;;;10.23;4.30;;;;;;;;;;4965662;29;20027;-93
2024/01/31 01:42:08;;;;;;;12.65;4.90;;;;;;;;;;4960642;29;20522;-94
2024/01/31 01:44:33;;;;;;;15.27;4.60;;;;;;;;;;4935936;29;20019;-94
2024/01/31 01:47:02;;;;;;;14.73;4.20;;;;;;;;;;4932063;29;20047;-95
2024/01/31 01:49:28;;;;;;;22.40;4.35;;;;;;;;;;4955673;29;20118;-95
2024/01/31 01:51:53;;;;;;;13.48;4.18;;;;;;;;;;4954830;29;20095;-95
2024/01/31 01:54:20;;;;;;;16.73;4.43;;;;;;;;;;4953793;29;20035;-95
2024/01/31 01:56:48;;;;;;;15.98;3.75;;;;;;;;;;4928051;29;20107;-94
2024/01/31 01:59:13;;;;;;;10.13;4.45;;;;;;;;;;4936602;29;20054;-94
2024/01/31 02:01:45;;;;;;;14.07;4.00;;;;;;;;;;4940549;29;20064;-94
2024/01/31 02:04:13;;;;;;;14.85;4.13;;;;;;;;;;4951819;29;20035;-94
2024/01/31 02:06:42;;;;;;;10.95;3.72;;;;;;;;;;4938958;29;20513;-94
2024/01/31 02:09:11;;;;;;;14.00;3.93;;;;;;;;;;4956153;29;20107;-94
2024/01/31 02:11:36;;;;;;;16.70;3.90;;;;;;;;;;4932389;29;20279;-94
2024/01/31 02:14:01;;;;;;;9.65;3.13;;;;;;;;;;4920760;29;20514;-94
2024/01/31 02:16:26;;;;;;;13.53;3.50;;;;;;;;;;4937354;29;20083;-93
2024/01/31 02:18:58;;;;;;;10.90;3.50;;;;;;;;;;4936095;29;20027;-94
2024/01/31 02:21:24;;;;;;;7.95;2.47;;;;;;;;;;4923798;29;20624;-94
2024/01/31 02:23:51;;;;;;;10.07;2.60;;;;;;;;;;4921872;29;20449;-94
2024/01/31 02:26:16;;;;;;;12.40;2.70;;;;;;;;;;4956391;28;20019;-92
2024/01/31 02:31:44;;;;;;;10.93;2.42;;;;;;;;;;4964197;29;20055;-94
2024/01/31 02:34:15;;;;;;;10.90;2.40;;;;;;;;;;4957663;28;20269;-93
2024/01/31 02:37:08;;;;;;;7.85;2.30;;;;;;;;;;4953994;28;20039;-92
2024/01/31 02:39:50;;;;;;;;;;;;;;;;;;;;;
2024/01/31 02:42:16;;;;;;;13.52;2.50;;;;;;;;;;4955301;29;20335;-92
2024/01/31 02:44:44;;;;;;;11.33;2.50;;;;;;;;;;4953826;29;20051;-91
2024/01/31 02:47:19;;;;;;;7.40;2.45;;;;;;;;;;4940974;29;20106;-93
2024/01/31 02:50:10;;;;;;;10.03;2.50;;;;;;;;;;4952239;28;20044;-92
2024/01/31 02:52:36;;;;;;;11.25;2.75;;;;;;;;;;4940837;29;20027;-92
2024/01/31 02:55:02;;;;;;;10.33;2.70;;;;;;;;;;4968008;28;20497;-92
2024/01/31 02:57:34;;;;;;;9.30;2.33;;;;;;;;;;4955973;28;20035;-93
2024/01/31 03:03:28;;;;;;;5.07;2.28;;;;;;;;;;4929385;29;20048;-93
2024/01/31 03:06:02;;;;;;;5.00;2.40;;;;;;;;;;4969914;22;20081;-93
2024/01/31 03:08:28;;;;;;;14.07;2.53;;;;;;;;;;4996091;28;20026;-93
2024/01/31 03:10:53;;;;;;;7.45;2.17;;;;;;;;;;4977732;28;20029;-93
2024/01/31 03:13:30;;;;;;;6.70;2.60;;;;;;;;;;4978192;28;20109;-93
2024/01/31 03:16:39;;;;;;;;;;;;;;;;;;;;;
2024/01/31 03:19:23;;;;;;;9.43;2.30;;;;;;;;;;4995625;28;20097;-93
2024/01/31 03:24:57;;;;;;;7.68;2.53;;;;;;;;;;4885710;29;20076;-93
2024/01/31 03:27:40;;;;;;;7.47;2.58;;;;;;;;;;4897413;29;20036;-93
2024/01/31 03:33:18;;;;;;;12.13;2.90;;;;;;;;;;4994675;28;20476;-94
2024/01/31 03:35:57;;;;;;;11.33;3.03;;;;;;;;;;4995753;28;20023;-94
2024/01/31 03:38:22;;;;;;;15.50;3.45;;;;;;;;;;4968813;28;20081;-93
2024/01/31 03:41:09;;;;;;;15.10;3.17;;;;;;;;;;4975980;28;20019;-93
2024/01/31 04:00:09;;;;;;;9.23;3.20;;;;;;;;;;4975854;28;20263;-93
2024/01/31 04:15:10;;;;;;;9.82;3.10;;;;;;;;;;4958072;29;20031;-93
2024/01/31 04:18:08;;;;;;;8.77;3.08;;;;;;;;;;4936888;28;20020;-93
2024/01/31 04:20:42;;;;;;;9.15;3.25;;;;;;;;;;4843579;29;20076;-93
2024/01/31 04:23:29;;;;;;;13.50;3.78;;;;;;;;;;4854287;29;20067;-93
2024/01/31 04:26:01;;;;;;;9.57;3.27;;;;;;;;;;4854141;29;20042;-92
2024/01/31 04:28:32;;;;;;;9.77;4.07;;;;;;;;;;4862440;29;20274;-93
2024/01/31 04:31:19;;;;;;;8.75;3.60;;;;;;;;;;4862281;29;20038;-93
2024/01/31 04:34:04;;;;;;;;;;;;;;;;;;;;;
2024/01/31 04:36:32;;;;;;;14.68;4.35;;;;;;;;;;4886720;29;20492;-94
2024/01/31 04:48:54;;;;;;;10.45;4.20;;;;;;;;;;4996887;28;20040;-94
2024/01/31 04:51:20;;;;;;;12.73;3.63;;;;;;;;;;4970888;28;20027;-95
2024/01/31 04:53:55;;;;;;;;;;;;;;;;;;;;;
2024/01/31 04:56:24;;;;;;;9.27;3.65;;;;;;;;;;4956237;28;20051;-93
2024/01/31 05:01:56;;;;;;;16.65;3.95;;;;;;;;;;4936118;29;20020;-96
2024/01/31 05:04:25;;;;;;;13.90;4.23;;;;;;;;;;5001309;28;20026;-95
2024/01/31 05:07:14;;;;;;;16.42;5.30;;;;;;;;;;5003372;28;20029;-95
2024/01/31 05:10:19;;;;;;;15.40;5.03;;;;;;;;;;4993478;28;20022;-96
2024/01/31 05:13:06;;;;;;;19.27;5.85;;;;;;;;;;4934544;29;20166;-94
2024/01/31 05:15:43;;;;;;;17.17;5.75;;;;;;;;;;4966590;28;20042;-94
2024/01/31 05:18:12;;;;;;;17.20;6.17;;;;;;;;;;4990715;28;20018;-93
2024/01/31 05:20:37;;;;;;;19.52;5.97;;;;;;;;;;4987839;28;20041;-92
2024/01/31 05:23:02;;;;;;;24.00;7.03;;;;;;;;;;4987685;28;20026;-92
2024/01/31 05:25:27;;;;;;;26.40;7.00;;;;;;;;;;4990202;28;20018;-92
2024/01/31 05:27:53;;;;;;;26.53;8.30;;;;;;;;;;4992979;28;20018;-91
2024/01/31 05:30:18;;;;;;;25.23;8.57;;;;;;;;;;4991657;28;20058;-91
2024/01/31 05:32:45;;;;;;;27.33;9.13;;;;;;;;;;4997272;28;20035;-90
2024/01/31 05:35:10;;;;;;;30.77;9.32;;;;;;;;;;4990260;28;20069;-90
2024/01/31 05:37:35;;;;;;;23.30;8.77;;;;;;;;;;4985507;28;20455;-93
2024/01/31 05:40:01;;;;;;;24.43;9.50;;;;;;;;;;4993429;28;20019;-93
2024/01/31 05:42:26;;;;;;;27.37;8.93;;;;;;;;;;4979863;28;20042;-89
2024/01/31 05:44:53;;;;;;;31.67;9.60;;;;;;;;;;4973220;28;20062;-90
2024/01/31 05:47:18;;;;;;;26.38;9.77;;;;;;;;;;4977135;28;20059;-91
2024/01/31 05:49:44;;;;;;;28.23;9.80;;;;;;;;;;4980999;28;20018;-90
2024/01/31 05:52:09;;;;;;;35.13;10.50;;;;;;;;;;4971588;28;20045;-92
2024/01/31 05:54:34;;;;;;;31.20;10.23;;;;;;;;;;4990283;28;20809;-91
2024/01/31 05:57:00;;;;;;;34.20;10.13;;;;;;;;;;4986765;28;20110;-90
2024/01/31 05:59:25;;;;;;;28.20;10.57;;;;;;;;;;4990753;28;20032;-89
2024/01/31 06:01:50;;;;;;;36.63;11.47;;;;;;;;;;4989027;28;20010;-87
2024/01/31 06:04:15;;;;;;;29.23;11.63;;;;;;;;;;5000834;28;20121;-92
2024/01/31 06:06:41;;;;;;;46.70;15.97;;;;;;;;;;5003493;28;20022;-88
2024/01/31 06:09:06;;;;;;;34.03;13.20;;;;;;;;;;4985179;28;20067;-90
2024/01/31 06:11:31;;;;;;;39.63;12.00;;;;;;;;;;5002742;28;20022;-90
2024/01/31 06:13:56;;;;;;;36.80;11.70;;;;;;;;;;4990841;28;20107;-90
2024/01/31 06:16:22;;;;;;;31.83;11.83;;;;;;;;;;4998462;28;20029;-90
2024/01/31 06:18:47;;;;;;;40.30;13.10;;;;;;;;;;4998268;28;20014;-90
2024/01/31 06:21:12;;;;;;;36.93;12.30;;;;;;;;;;4994690;28;20026;-91
2024/01/31 06:23:37;;;;;;;31.87;12.13;;;;;;;;;;4991201;28;20105;-90
2024/01/31 06:26:03;;;;;;;36.38;11.60;;;;;;;;;;4993986;28;20381;-89
2024/01/31 06:28:28;;;;;;;32.07;11.33;;;;;;;;;;4997127;28;20018;-90
2024/01/31 06:30:59;;;;;;;40.07;12.50;;;;;;;;;;4994913;28;20081;-90
2024/01/31 06:33:29;;;;;;;34.63;11.52;;;;;;;;;;4995024;28;20018;-90
2024/01/31 06:35:55;;;;;;;38.20;11.90;;;;;;;;;;4985729;28;20050;-90
2024/01/31 06:38:20;;;;;;;38.67;12.03;;;;;;;;;;4994005;28;20626;-90
2024/01/31 06:40:45;;;;;;;35.30;13.17;;;;;;;;;;4993976;28;20042;-90
2024/01/31 06:43:10;;;;;;;35.47;14.20;;;;;;;;;;4967692;28;20027;-90
2024/01/31 06:45:36;;;;;;;37.73;12.90;;;;;;;;;;4982147;28;20041;-90
2024/01/31 06:48:03;;;;;;;35.97;12.47;;;;;;;;;;4992330;28;20034;-89
2024/01/31 06:50:29;;;;;;;34.28;13.20;;;;;;;;;;4980938;28;20010;-91
2024/01/31 06:52:54;;;;;;;33.90;12.47;;;;;;;;;;5001225;28;20026;-91
2024/01/31 06:57:47;;;;;;;39.53;13.50;;;;;;;;;;4973722;28;20130;-90
2024/01/31 07:00:14;;;;;;;34.93;12.57;;;;;;;;;;4975950;28;20070;-89
2024/01/31 07:02:39;;;;;;;38.42;12.38;;;;;;;;;;4957429;28;20031;-90
2024/01/31 07:05:05;;;;;;;42.73;13.10;;;;;;;;;;4968430;28;20135;-93
2024/01/31 07:07:50;;;;;;;43.13;12.83;;;;;;;;;;4970584;28;20023;-91
2024/01/31 07:10:15;;;;;;;33.72;13.35;;;;;;;;;;4968964;28;20030;-90
2024/01/31 07:12:40;;;;;;;42.90;14.60;;;;;;;;;;4970775;28;20041;-90
2024/01/31 07:15:06;;;;;;;40.47;13.40;;;;;;;;;;4968483;28;20054;-90
2024/01/31 07:17:32;;;;;;;33.70;13.53;;;;;;;;;;4974040;28;20081;-92
2024/01/31 07:19:57;;;;;;;38.10;14.38;;;;;;;;;;4973102;28;20054;-91
2024/01/31 07:22:23;;;;;;;45.50;13.43;;;;;;;;;;4966305;28;20069;-91
2024/01/31 07:24:48;;;;;;;38.53;14.63;;;;;;;;;;4974759;28;20022;-92
2024/01/31 07:27:13;;;;;;;38.90;13.70;;;;;;;;;;4974130;28;20037;-91
2024/01/31 07:29:38;;;;;;;39.17;13.70;;;;;;;;;;4983035;28;20087;-91
2024/01/31 07:32:04;;;;;;;44.47;14.73;;;;;;;;;;4976233;28;20656;-93
2024/01/31 07:34:29;;;;;;;47.63;15.27;;;;;;;;;;4970419;28;20057;-92
2024/01/31 07:36:54;;;;;;;46.43;16.47;;;;;;;;;;4967197;28;20034;-91
2024/01/31 07:39:19;;;;;;;43.33;15.97;;;;;;;;;;4980347;28;20050;-92
2024/01/31 07:41:45;;;;;;;44.93;16.07;;;;;;;;;;4980579;28;20463;-90
2024/01/31 07:44:15;;;;;;;46.87;15.37;;;;;;;;;;4976473;28;20047;-93
2024/01/31 07:46:42;;;;;;;46.58;16.30;;;;;;;;;;4976383;28;20050;-92
2024/01/31 07:49:08;;;;;;;50.40;14.77;;;;;;;;;;4973602;28;20034;-93
2024/01/31 07:51:40;;;;;;;59.20;15.75;;;;;;;;;;4973091;28;20011;-92
2024/01/31 07:54:05;;;;;;;49.83;16.10;;;;;;;;;;4968644;28;20053;-90
2024/01/31 07:56:31;;;;;;;47.47;14.65;;;;;;;;;;4966982;28;20027;-91
2024/01/31 07:58:56;;;;;;;44.43;14.67;;;;;;;;;;4968878;28;20027;-92
2024/01/31 08:01:21;;;;;;;42.60;14.00;;;;;;;;;;4975224;28;20038;-89
2024/01/31 08:03:46;;;;;;;43.73;14.73;;;;;;;;;;4979272;28;20046;-90
2024/01/31 08:06:12;;;;;;;43.57;14.87;;;;;;;;;;4968879;28;20086;-92
2024/01/31 08:08:37;;;;;;;42.23;15.00;;;;;;;;;;4964477;28;20054;-92
2024/01/31 08:11:03;;;;;;;43.07;15.33;;;;;;;;;;4974835;28;20074;-92
2024/01/31 08:16:02;;;;;;;37.15;14.90;;;;;;;;;;5036168;22;20050;-88
2024/01/31 08:18:33;;;;;;;41.38;14.43;;;;;;;;;;4996348;28;20478;-88
2024/01/31 08:21:11;;;;;;;35.53;13.10;;;;;;;;;;4995929;28;20054;-86
2024/01/31 08:23:43;;;;;;;45.47;14.27;;;;;;;;;;4986968;28;20344;-87
2024/01/31 08:26:15;;;;;;;45.10;13.68;;;;;;;;;;4964465;28;20106;-87
2024/01/31 08:28:40;;;;;;;43.58;14.52;;;;;;;;;;4973104;28;20039;-88
2024/01/31 08:31:05;;;;;;;43.43;14.80;;;;;;;;;;4973366;28;20026;-88
2024/01/31 08:33:37;;;;;;;40.23;15.13;;;;;;;;;;4956224;28;20490;-88
2024/01/31 08:36:02;;;;;;;48.70;15.00;;;;;;;;;;4973353;28;20031;-88
2024/01/31 08:38:29;;;;;;;45.10;15.43;;;;;;;;;;4965776;28;20018;-88
2024/01/31 08:40:55;;;;;;;51.22;15.93;;;;;;;;;;4971801;28;20081;-88
2024/01/31 08:43:20;;;;;;;46.57;16.57;;;;;;;;;;4952570;28;20141;-88
2024/01/31 08:45:45;;;;;;;49.87;16.97;;;;;;;;;;4969423;28;20027;-88
2024/01/31 08:48:10;;;;;;;51.77;16.97;;;;;;;;;;4971630;28;20031;-88
2024/01/31 08:50:35;;;;;;;52.70;16.93;;;;;;;;;;4974418;28;20030;-88
2024/01/31 08:53:00;;;;;;;48.63;16.67;;;;;;;;;;4973056;28;20019;-89
2024/01/31 08:55:27;;;;;;;62.70;17.05;;;;;;;;;;4973424;28;20059;-88
2024/01/31 08:57:52;;;;;;;59.27;17.17;;;;;;;;;;4974169;28;20033;-87
2024/01/31 09:00:17;;;;;;;52.93;16.70;;;;;;;;;;4985133;28;20026;-89
2024/01/31 09:02:43;;;;;;;58.47;18.03;;;;;;;;;;4986882;28;20030;-88
2024/01/31 09:05:10;;;;;;;57.47;18.27;;;;;;;;;;4986550;28;20030;-90
2024/01/31 09:07:36;;;;;;;54.75;19.50;;;;;;;;;;4985417;28;20023;-89
2024/01/31 09:10:01;;;;;;;64.77;20.20;;;;;;;;;;4987560;28;20049;-88
2024/01/31 09:12:28;;;;;;;49.63;17.30;;;;;;;;;;4985880;28;20111;-89
2024/01/31 09:14:53;;;;;;;57.17;19.23;;;;;;;;;;4986858;28;20094;-88
2024/01/31 09:17:19;;;;;;;53.83;18.10;;;;;;;;;;4967117;28;20023;-87
2024/01/31 09:19:44;;;;;;;54.65;19.35;;;;;;;;;;4980806;28;20051;-87
2024/01/31 09:22:09;;;;;;;55.63;18.10;;;;;;;;;;4981433;28;20026;-88
2024/01/31 09:24:34;;;;;;;61.83;19.43;;;;;;;;;;4978988;28;20276;-88
2024/01/31 09:27:00;;;;;;;56.87;19.23;;;;;;;;;;4977775;28;20327;-90
2024/01/31 09:29:26;;;;;;;55.92;19.90;;;;;;;;;;4978712;28;20015;-89
2024/01/31 09:31:51;;;;;;;56.67;21.47;;;;;;;;;;4957212;28;20041;-88
2024/01/31 09:34:16;;;;;;;56.03;19.50;;;;;;;;;;4968803;28;20035;-87
2024/01/31 09:36:43;;;;;;;57.70;20.00;;;;;;;;;;4975476;28;20022;-87
2024/01/31 09:39:10;;;;;;;51.75;19.27;;;;;;;;;;4976419;28;20074;-88
2024/01/31 09:41:35;;;;;;;54.57;20.23;;;;;;;;;;4964852;28;20015;-87
2024/01/31 09:44:00;;;;;;;60.27;20.97;;;;;;;;;;4977788;28;20298;-88
2024/01/31 09:46:26;;;;;;;56.63;21.07;;;;;;;;;;4974627;28;20027;-87
2024/01/31 09:48:51;;;;;;;51.30;20.30;;;;;;;;;;4973026;28;20022;-88
2024/01/31 09:51:17;;;;;;;54.63;20.27;;;;;;;;;;4961921;28;20039;-89
2024/01/31 09:53:44;;;;;;;50.90;21.17;;;;;;;;;;4966534;28;20015;-88
2024/01/31 09:56:10;;;;;;;48.10;20.10;;;;;;;;;;4962546;28;20160;-88
2024/01/31 09:58:36;;;;;;;55.37;19.33;;;;;;;;;;4969411;28;20019;-88
2024/01/31 10:01:08;;;;;;;43.63;19.60;;;;;;;;;;4971615;28;20023;-89
2024/01/31 10:03:33;;;;;;;45.17;18.73;;;;;;;;;;4969761;28;20093;-88
2024/01/31 10:05:59;;;;;;;45.70;18.63;;;;;;;;;;4968413;28;20546;-87
2024/01/31 10:08:27;;;;;;;45.47;19.10;;;;;;;;;;4960087;28;20018;-88
2024/01/31 10:10:52;;;;;;;47.67;18.30;;;;;;;;;;4959225;28;20030;-89
2024/01/31 10:13:17;;;;;;;42.40;17.23;;;;;;;;;;4972512;28;20031;-88
2024/01/31 10:15:44;;;;;;;38.77;16.47;;;;;;;;;;4970507;28;20035;-88
2024/01/31 10:18:09;;;;;;;38.85;16.52;;;;;;;;;;4956422;28;20055;-86
2024/01/31 10:20:34;;;;;;;34.50;15.63;;;;;;;;;;4970326;28;20049;-87
2024/01/31 10:23:00;;;;;;;34.53;14.97;;;;;;;;;;4972103;28;20074;-88
2024/01/31 10:25:25;;;;;;;31.63;13.68;;;;;;;;;;4971877;28;20489;-88
2024/01/31 10:27:52;;;;;;;29.67;14.27;;;;;;;;;;4970078;28;20038;-90
2024/01/31 10:30:17;;;;;;;30.63;14.50;;;;;;;;;;4954185;28;20023;-91
2024/01/31 10:33:08;;;;;;;28.60;13.90;;;;;;;;;;4971352;28;20522;-91
2024/01/31 10:38:51;;;;;;;28.13;13.48;;;;;;;;;;4967336;28;20049;-91
2024/01/31 10:41:36;;;;;;;29.27;14.00;;;;;;;;;;4962302;28;20030;-93
2024/01/31 10:44:23;;;;;;;;;;;;;;;;;;;;;
2024/01/31 10:46:57;;;;;;;19.48;10.40;;;;;;;;;;4943572;29;20051;-91
2024/01/31 10:49:31;;;;;;;25.13;12.02;;;;;;;;;;4934426;29;20043;-92
2024/01/31 10:52:07;;;;;;;19.88;10.65;;;;;;;;;;4975441;28;20137;-93
2024/01/31 10:54:43;;;;;;;21.93;10.60;;;;;;;;;;4958218;28;20095;-91
2024/01/31 11:00:30;;;;;;;19.98;10.27;;;;;;;;;;4976467;29;20030;-92
2024/01/31 11:03:24;;;;;;;22.48;9.80;;;;;;;;;;4970415;28;20063;-92
2024/01/31 11:12:03;;;;;;;19.00;10.10;;;;;;;;;;4877566;29;20276;-91
2024/01/31 11:14:45;;;;;;;20.88;10.18;;;;;;;;;;4888773;29;20025;-91
2024/01/31 11:17:34;;;;;;;19.05;11.40;;;;;;;;;;4930122;28;20110;-91
2024/01/31 11:20:11;;;;;;;21.38;10.82;;;;;;;;;;4956004;28;20038;-94
2024/01/31 11:22:47;;;;;;;19.45;11.27;;;;;;;;;;5117161;23;20415;-94
2024/01/31 11:25:38;;;;;;;20.13;11.03;;;;;;;;;;4950566;28;20035;-91
2024/01/31 11:28:23;;;;;;;19.07;11.10;;;;;;;;;;4966998;28;20316;-91
2024/01/31 11:30:57;;;;;;;19.63;11.10;;;;;;;;;;4968596;28;20026;-91
2024/01/31 11:33:29;;;;;;;19.92;11.73;;;;;;;;;;4955561;29;20121;-91
2024/01/31 11:35:57;;;;;;;20.60;11.43;;;;;;;;;;4972046;28;20030;-91
2024/01/31 11:38:55;;;;;;;23.73;11.88;;;;;;;;;;4975128;28;20027;-91
2024/01/31 11:41:22;;;;;;;20.70;11.50;;;;;;;;;;4969867;28;20026;-91
2024/01/31 11:43:59;;;;;;;20.90;11.60;;;;;;;;;;4993657;23;20074;-91
2024/01/31 11:49:34;;;;;;;18.20;11.07;;;;;;;;;;4966297;28;20045;-90
2024/01/31 11:52:24;;;;;;;20.70;11.90;;;;;;;;;;4965727;28;20027;-89
2024/01/31 11:54:50;;;;;;;14.90;10.27;;;;;;;;;;4979923;28;20482;-90
2024/01/31 11:57:26;;;;;;;14.33;9.60;;;;;;;;;;4978607;28;20305;-91
2024/01/31 11:59:53;;;;;;;14.90;9.47;;;;;;;;;;4974181;28;20077;-90
2024/01/31 12:02:29;;;;;;;13.43;7.87;;;;;;;;;;4971611;28;20282;-91
2024/01/31 12:05:06;;;;;;;14.30;9.15;;;;;;;;;;4975053;28;20034;-91
2024/01/31 12:10:54;;;;;;;11.75;8.40;;;;;;;;;;4974113;28;20077;-91
2024/01/31 12:16:06;;;;;;;11.90;8.43;;;;;;;;;;4940432;29;20039;-90
2024/01/31 12:18:37;;;;;;;16.43;8.20;;;;;;;;;;4957627;28;20349;-91
2024/01/31 12:21:03;;;;;;;11.57;7.68;;;;;;;;;;4987888;28;20030;-90
2024/01/31 12:23:34;;;;;;;12.00;7.78;;;;;;;;;;4980548;28;20100;-91
2024/01/31 12:26:08;;;;;;;11.35;7.40;;;;;;;;;;4986041;28;20023;-90
2024/01/31 12:28:54;;;;;;;12.23;7.53;;;;;;;;;;4991204;28;20034;-91
2024/01/31 12:31:19;;;;;;;8.27;6.50;;;;;;;;;;4975499;28;20262;-90
2024/01/31 12:33:50;;;;;;;10.30;6.80;;;;;;;;;;4984659;28;20078;-90
2024/01/31 12:36:15;;;;;;;11.97;6.40;;;;;;;;;;4975142;28;20783;-91
2024/01/31 12:38:40;;;;;;;10.80;5.90;;;;;;;;;;4976320;28;20225;-90
2024/01/31 12:41:15;;;;;;;9.73;6.23;;;;;;;;;;4980198;28;20018;-90
2024/01/31 12:43:52;;;;;;;9.50;5.93;;;;;;;;;;4982293;28;20105;-91
2024/01/31 12:46:26;;;;;;;9.60;5.90;;;;;;;;;;4976116;28;20054;-89
2024/01/31 12:49:28;;;;;;;11.18;6.25;;;;;;;;;;4977917;28;20045;-89
2024/01/31 12:52:02;;;;;;;9.18;5.45;;;;;;;;;;4950446;28;20050;-90
2024/01/31 12:54:27;;;;;;;6.47;4.55;;;;;;;;;;4976873;28;20022;-90
2024/01/31 12:56:56;;;;;;;6.10;4.80;;;;;;;;;;4976824;28;20031;-90
2024/01/31 12:59:23;;;;;;;9.00;4.90;;;;;;;;;;4973687;28;20336;-88
2024/01/31 13:01:56;;;;;;;7.70;4.95;;;;;;;;;;4964837;28;20015;-89
2024/01/31 13:04:25;;;;;;;7.60;4.77;;;;;;;;;;4975825;28;20057;-90
2024/01/31 13:06:53;;;;;;;7.40;4.90;;;;;;;;;;4978088;28;20019;-90
2024/01/31 13:09:21;;;;;;;6.32;4.40;;;;;;;;;;4973790;28;20022;-93
2024/01/31 13:11:50;;;;;;;7.15;4.47;;;;;;;;;;4954302;28;20059;-91
2024/01/31 13:14:17;;;;;;;6.72;4.95;;;;;;;;;;4979864;23;20191;-88
2024/01/31 13:16:45;;;;;;;6.87;4.57;;;;;;;;;;4957851;28;20074;-91
2024/01/31 13:19:11;;;;;;;4.70;3.67;;;;;;;;;;4976783;28;20289;-91
2024/01/31 13:21:37;;;;;;;7.17;4.37;;;;;;;;;;4974182;28;20022;-91
2024/01/31 13:24:03;;;;;;;8.48;3.45;;;;;;;;;;4974464;28;20046;-90
2024/01/31 13:26:32;;;;;;;6.17;3.40;;;;;;;;;;4979891;28;20057;-90
2024/01/31 13:28:58;;;;;;;5.97;3.70;;;;;;;;;;4982092;28;20302;-90
2024/01/31 13:31:23;;;;;;;5.82;3.80;;;;;;;;;;4976019;28;20030;-91
2024/01/31 13:33:48;;;;;;;8.33;3.07;;;;;;;;;;4974710;28;20240;-90
2024/01/31 13:36:13;;;;;;;8.37;3.17;;;;;;;;;;4980248;28;20037;-90
2024/01/31 13:38:38;;;;;;;5.07;3.10;;;;;;;;;;4984550;28;20014;-91
2024/01/31 13:41:04;;;;;;;5.13;3.10;;;;;;;;;;4989441;28;20046;-90
2024/01/31 13:43:29;;;;;;;5.33;2.80;;;;;;;;;;5001387;28;20038;-90
2024/01/31 13:45:54;;;;;;;5.93;2.67;;;;;;;;;;5015354;28;20030;-92
2024/01/31 13:48:20;;;;;;;4.97;2.70;;;;;;;;;;5006671;28;20034;-92
2024/01/31 13:50:45;;;;;;;5.37;2.73;;;;;;;;;;4995360;28;20082;-91
2024/01/31 13:53:10;;;;;;;9.57;2.40;;;;;;;;;;4996099;28;20015;-91
2024/01/31 13:55:35;;;;;;;3.87;2.30;;;;;;;;;;4996372;28;20003;-91
2024/01/31 13:58:00;;;;;;;5.37;2.70;;;;;;;;;;4978695;28;20023;-92
2024/01/31 14:00:26;;;;;;;3.50;2.40;;;;;;;;;;5002023;28;20019;-91
2024/01/31 14:02:52;;;;;;;4.17;2.13;;;;;;;;;;4973916;28;20035;-91
2024/01/31 14:05:17;;;;;;;4.40;2.20;;;;;;;;;;4976756;28;20125;-90
2024/01/31 14:07:42;;;;;;;4.00;2.67;;;;;;;;;;4993364;28;20058;-91
2024/01/31 14:10:08;;;;;;;3.77;1.93;;;;;;;;;;4987029;28;20029;-91
2024/01/31 14:12:33;;;;;;;5.32;2.30;;;;;;;;;;4977511;28;20027;-92
2024/01/31 14:14:59;;;;;;;4.67;2.53;;;;;;;;;;4977118;28;20030;-92
2024/01/31 14:17:25;;;;;;;3.87;2.30;;;;;;;;;;4959796;28;20022;-91
2024/01/31 14:19:50;;;;;;;5.07;2.30;;;;;;;;;;4974552;28;20332;-91
2024/01/31 14:22:15;;;;;;;4.80;2.00;;;;;;;;;;4968864;28;20599;-91
2024/01/31 14:24:40;;;;;;;8.00;1.97;;;;;;;;;;4978639;28;20062;-91
2024/01/31 14:27:13;;;;;;;5.33;2.10;;;;;;;;;;4978842;28;20015;-91
2024/01/31 14:29:38;;;;;;;3.45;2.20;;;;;;;;;;4994683;28;20023;-92
2024/01/31 14:32:03;;;;;;;3.37;1.60;;;;;;;;;;4974240;28;20589;-90
2024/01/31 14:34:29;;;;;;;5.70;1.60;;;;;;;;;;4977916;28;20086;-91
2024/01/31 14:36:54;;;;;;;3.83;1.67;;;;;;;;;;5002169;28;20026;-90
2024/01/31 14:39:19;;;;;;;4.07;1.80;;;;;;;;;;5006769;28;20054;-90
2024/01/31 14:41:45;;;;;;;5.70;1.60;;;;;;;;;;5004939;28;20017;-90
2024/01/31 14:44:10;;;;;;;3.65;1.63;;;;;;;;;;5013960;28;20065;-90
2024/01/31 14:46:36;;;;;;;5.10;1.67;;;;;;;;;;5017297;28;20014;-90
2024/01/31 14:49:01;;;;;;;4.47;1.60;;;;;;;;;;5011064;28;20049;-90
2024/01/31 14:51:26;;;;;;;5.73;1.57;;;;;;;;;;5015374;28;20022;-89
2024/01/31 14:53:52;;;;;;;6.67;1.93;;;;;;;;;;5008959;28;20026;-90
2024/01/31 14:56:17;;;;;;;5.07;1.90;;;;;;;;;;5000284;28;20270;-92
2024/01/31 14:58:43;;;;;;;2.10;1.70;;;;;;;;;;5013694;28;20137;-89
2024/01/31 15:01:09;;;;;;;3.97;1.60;;;;;;;;;;4990277;28;20561;-92
2024/01/31 15:03:34;;;;;;;3.45;1.73;;;;;;;;;;4993746;28;20038;-90
2024/01/31 15:06:00;;;;;;;4.77;1.60;;;;;;;;;;4966335;28;20054;-91
2024/01/31 15:08:28;;;;;;;4.65;1.60;;;;;;;;;;4986850;28;20030;-89
2024/01/31 15:10:53;;;;;;;3.33;1.73;;;;;;;;;;5010806;28;20041;-90
2024/01/31 15:13:18;;;;;;;4.70;1.63;;;;;;;;;;4982989;28;20027;-89
2024/01/31 15:15:43;;;;;;;3.73;1.50;;;;;;;;;;4976968;28;20026;-90
2024/01/31 15:18:09;;;;;;;6.13;1.47;;;;;;;;;;4959331;28;20102;-90
2024/01/31 15:20:36;;;;;;;5.23;1.37;;;;;;;;;;4990460;28;20022;-90
2024/01/31 15:23:02;;;;;;;5.82;1.90;;;;;;;;;;4984954;28;20054;-91
2024/01/31 15:25:28;;;;;;;3.63;1.50;;;;;;;;;;4995485;28;20032;-90
2024/01/31 15:27:53;;;;;;;3.07;1.70;;;;;;;;;;4973687;28;20026;-90
2024/01/31 15:30:18;;;;;;;3.37;1.50;;;;;;;;;;4987871;28;20631;-90
2024/01/31 15:32:45;;;;;;;3.47;1.60;;;;;;;;;;4984665;28;20026;-91
2024/01/31 15:35:13;;;;;;;5.05;1.63;;;;;;;;;;4978396;28;20070;-89
2024/01/31 15:37:38;;;;;;;5.43;1.75;;;;;;;;;;4980929;28;20101;-89
2024/01/31 15:40:04;;;;;;;5.17;1.83;;;;;;;;;;4989646;28;20050;-92
2024/01/31 15:42:30;;;;;;;2.63;1.73;;;;;;;;;;4971614;28;20027;-90
2024/01/31 15:44:55;;;;;;;3.37;1.40;;;;;;;;;;4976903;28;20697;-90
2024/01/31 15:47:20;;;;;;;8.67;2.00;;;;;;;;;;4978226;28;20023;-90
2024/01/31 15:49:47;;;;;;;4.20;1.80;;;;;;;;;;4977404;28;20467;-90
2024/01/31 15:52:12;;;;;;;4.25;2.00;;;;;;;;;;4976433;28;20089;-90
2024/01/31 15:54:39;;;;;;;6.27;2.50;;;;;;;;;;4975256;28;20027;-90
2024/01/31 15:57:05;;;;;;;6.85;2.10;;;;;;;;;;4992394;28;20049;-94
2024/01/31 15:59:30;;;;;;;3.72;2.10;;;;;;;;;;4988888;28;20113;-88
2024/01/31 16:01:56;;;;;;;5.77;2.03;;;;;;;;;;4985239;28;20029;-90